createdAt,value
2019-04-06T00:01:03.971Z,7.31
2019-04-06T00:02:20.923Z,7.31
2019-04-06T00:03:03.978Z,7.31
2019-04-06T00:05:03.885Z,7.31
2019-04-06T00:07:03.920Z,7.31
2019-04-06T00:09:04.201Z,7.31
2019-04-06T00:11:04.079Z,7.31
2019-04-06T00:13:03.922Z,7.38
2019-04-06T00:15:04.029Z,7.31
2019-04-06T00:17:03.936Z,7.31
2019-04-06T00:17:20.868Z,7.31
2019-04-06T00:19:03.990Z,7.25
2019-04-06T00:21:04.039Z,7.25
2019-04-06T00:23:05.531Z,7.25
2019-04-06T00:25:04.016Z,7.25
2019-04-06T00:27:03.985Z,7.31
2019-04-06T00:29:04.118Z,7.25
2019-04-06T00:31:03.972Z,7.25
2019-04-06T00:32:20.954Z,7.25
2019-04-06T00:33:04.071Z,7.19
2019-04-06T00:35:03.923Z,7.25
2019-04-06T00:37:04.026Z,7.25
2019-04-06T00:39:03.937Z,7.19
2019-04-06T00:41:03.895Z,7.13
2019-04-06T00:43:03.999Z,7.19
2019-04-06T00:45:04.835Z,7.13
2019-04-06T00:47:03.936Z,7.13
2019-04-06T00:47:20.957Z,7.13
2019-04-06T00:49:03.895Z,7.13
2019-04-06T00:51:03.988Z,7.13
2019-04-06T00:53:03.979Z,7.06
2019-04-06T00:55:04.026Z,7
2019-04-06T00:57:03.946Z,7.13
2019-04-06T00:59:03.893Z,7.06
2019-04-06T01:01:04.901Z,7.13
2019-04-06T01:02:20.961Z,7.13
2019-04-06T01:03:03.997Z,7.13
2019-04-06T01:05:03.983Z,7.06
2019-04-06T01:07:03.890Z,7.06
2019-04-06T01:09:04.855Z,7.06
2019-04-06T01:11:03.934Z,7.06
2019-04-06T01:13:03.948Z,7.06
2019-04-06T01:15:03.935Z,7.06
2019-04-06T01:17:04.072Z,7.06
2019-04-06T01:17:21.811Z,7.06
2019-04-06T01:19:03.986Z,7.06
2019-04-06T01:21:03.875Z,7.06
2019-04-06T01:23:03.910Z,7
2019-04-06T01:25:03.907Z,7
2019-04-06T01:27:03.961Z,7.06
2019-04-06T01:29:03.946Z,7
2019-04-06T01:31:03.921Z,7
2019-04-06T01:32:22.563Z,7
2019-04-06T01:33:03.978Z,6.94
2019-04-06T01:35:04.910Z,6.94
2019-04-06T01:37:03.971Z,6.94
2019-04-06T01:39:03.933Z,6.94
2019-04-06T01:41:03.971Z,6.94
2019-04-06T01:43:03.870Z,6.88
2019-04-06T01:45:03.915Z,6.94
2019-04-06T01:47:03.906Z,6.94
2019-04-06T01:47:21.831Z,6.94
2019-04-06T01:49:03.922Z,6.94
2019-04-06T01:51:03.885Z,6.94
2019-04-06T01:53:03.961Z,6.94
2019-04-06T01:55:03.992Z,6.94
2019-04-06T01:57:04.889Z,6.94
2019-04-06T01:59:04.011Z,6.88
2019-04-06T02:01:03.937Z,6.88
2019-04-06T02:02:20.894Z,6.88
2019-04-06T02:03:04.876Z,6.94
2019-04-06T02:05:03.930Z,6.94
2019-04-06T02:07:04.020Z,6.88
2019-04-06T02:09:04.005Z,6.88
2019-04-06T02:11:03.933Z,6.94
2019-04-06T02:13:03.878Z,6.88
2019-04-06T02:15:03.972Z,6.94
2019-04-06T02:17:03.995Z,6.94
2019-04-06T02:17:21.021Z,6.94
2019-04-06T02:19:03.968Z,6.94
2019-04-06T02:21:03.960Z,6.94
2019-04-06T02:23:03.948Z,6.94
2019-04-06T02:25:03.947Z,6.88
2019-04-06T02:27:03.981Z,6.94
2019-04-06T02:29:03.937Z,6.88
2019-04-06T02:31:03.901Z,6.88
2019-04-06T02:32:20.855Z,6.88
2019-04-06T02:33:03.948Z,6.88
2019-04-06T02:35:03.910Z,6.88
2019-04-06T02:37:04.011Z,6.88
2019-04-06T02:39:03.930Z,6.88
2019-04-06T02:41:03.855Z,6.88
2019-04-06T02:43:03.964Z,6.88
2019-04-06T02:45:03.885Z,6.88
2019-04-06T02:47:04.035Z,6.88
2019-04-06T02:47:20.885Z,6.88
2019-04-06T02:49:04.094Z,6.88
2019-04-06T02:51:03.969Z,6.88
2019-04-06T02:53:03.914Z,6.88
2019-04-06T02:55:04.020Z,6.88
2019-04-06T02:57:03.869Z,6.88
2019-04-06T02:59:03.906Z,6.81
2019-04-06T03:01:03.867Z,6.81
2019-04-06T03:02:20.902Z,6.81
2019-04-06T03:03:04.012Z,6.81
2019-04-06T03:05:03.907Z,6.81
2019-04-06T03:07:03.973Z,6.81
2019-04-06T03:09:03.906Z,6.75
2019-04-06T03:11:03.941Z,6.75
2019-04-06T03:13:03.981Z,6.75
2019-04-06T03:15:03.923Z,6.75
2019-04-06T03:17:03.953Z,6.75
2019-04-06T03:17:20.861Z,6.81
2019-04-06T03:19:03.946Z,6.75
2019-04-06T03:21:03.949Z,6.75
2019-04-06T03:23:03.969Z,6.75
2019-04-06T03:25:03.917Z,6.75
2019-04-06T03:27:03.920Z,6.75
2019-04-06T03:29:03.957Z,6.75
2019-04-06T03:31:03.929Z,6.69
2019-04-06T03:32:26.129Z,6.69
2019-04-06T03:33:03.922Z,6.69
2019-04-06T03:35:03.970Z,6.69
2019-04-06T03:37:03.980Z,6.63
2019-04-06T03:39:03.911Z,6.63
2019-04-06T03:41:04.198Z,6.69
2019-04-06T03:43:03.963Z,6.63
2019-04-06T03:45:03.943Z,6.63
2019-04-06T03:47:03.920Z,6.63
2019-04-06T03:47:20.842Z,6.63
2019-04-06T03:49:04.109Z,6.56
2019-04-06T03:51:03.909Z,6.63
2019-04-06T03:53:03.948Z,6.56
2019-04-06T03:55:03.902Z,6.56
2019-04-06T03:57:14.311Z,6.56
2019-04-06T03:59:04.802Z,6.56
2019-04-06T04:01:03.889Z,6.56
2019-04-06T04:02:21.044Z,6.56
2019-04-06T04:03:03.918Z,6.56
2019-04-06T04:05:04.032Z,6.56
2019-04-06T04:07:03.830Z,6.56
2019-04-06T04:09:03.909Z,6.56
2019-04-06T04:11:04.127Z,6.56
2019-04-06T04:13:03.842Z,6.5
2019-04-06T04:15:03.825Z,6.5
2019-04-06T04:17:03.990Z,6.5
2019-04-06T04:17:20.931Z,6.5
2019-04-06T04:19:03.879Z,6.5
2019-04-06T04:21:03.995Z,6.5
2019-04-06T04:23:03.976Z,6.5
2019-04-06T04:25:03.904Z,6.5
2019-04-06T04:27:04.110Z,6.5
2019-04-06T04:29:03.964Z,6.5
2019-04-06T04:31:03.974Z,6.5
2019-04-06T04:32:20.902Z,6.5
2019-04-06T04:33:03.870Z,6.5
2019-04-06T04:35:03.909Z,6.5
2019-04-06T04:37:03.821Z,6.5
2019-04-06T04:39:04.007Z,6.44
2019-04-06T04:41:04.213Z,6.5
2019-04-06T04:43:03.883Z,6.44
2019-04-06T04:45:04.864Z,6.5
2019-04-06T04:47:03.827Z,6.44
2019-04-06T04:47:20.955Z,6.44
2019-04-06T04:49:03.965Z,6.44
2019-04-06T04:51:03.876Z,6.44
2019-04-06T04:53:03.895Z,6.38
2019-04-06T04:55:03.881Z,6.38
2019-04-06T04:57:03.842Z,6.44
2019-04-06T04:59:03.932Z,6.38
2019-04-06T05:01:03.819Z,6.44
2019-04-06T05:02:20.786Z,6.44
2019-04-06T05:03:03.872Z,6.44
2019-04-06T05:05:03.940Z,6.44
2019-04-06T05:07:03.835Z,6.44
2019-04-06T05:09:03.864Z,6.44
2019-04-06T05:11:03.926Z,6.5
2019-04-06T05:13:03.929Z,6.44
2019-04-06T05:15:03.882Z,6.5
2019-04-06T05:17:03.889Z,6.5
2019-04-06T05:17:20.967Z,6.5
2019-04-06T05:19:03.840Z,6.5
2019-04-06T05:21:03.927Z,6.5
2019-04-06T05:23:03.832Z,6.56
2019-04-06T05:25:04.045Z,6.56
2019-04-06T05:27:03.906Z,6.56
2019-04-06T05:29:04.037Z,6.56
2019-04-06T05:31:03.919Z,6.56
2019-04-06T05:32:21.747Z,6.56
2019-04-06T05:33:03.869Z,6.56
2019-04-06T05:35:03.913Z,6.56
2019-04-06T05:37:03.928Z,6.63
2019-04-06T05:39:04.065Z,6.63
2019-04-06T05:41:03.819Z,6.63
2019-04-06T05:43:03.929Z,6.69
2019-04-06T05:45:04.989Z,6.69
2019-04-06T05:47:04.078Z,6.69
2019-04-06T05:47:20.811Z,6.69
2019-04-06T05:49:04.848Z,6.69
2019-04-06T05:51:03.879Z,6.75
2019-04-06T05:53:03.924Z,6.81
2019-04-06T05:55:04.039Z,6.81
2019-04-06T05:57:03.958Z,6.81
2019-04-06T05:59:04.124Z,6.88
2019-04-06T06:01:04.342Z,6.88
2019-04-06T06:02:20.848Z,6.88
2019-04-06T06:03:04.013Z,6.88
2019-04-06T06:05:03.889Z,6.94
2019-04-06T06:07:03.943Z,6.94
2019-04-06T06:09:03.920Z,7
2019-04-06T06:11:03.944Z,7.06
2019-04-06T06:13:04.092Z,7.13
2019-04-06T06:15:03.999Z,7.19
2019-04-06T06:17:03.833Z,7.19
2019-04-06T06:17:20.941Z,7.19
2019-04-06T06:19:04.076Z,7.25
2019-04-06T06:21:03.938Z,7.31
2019-04-06T06:23:03.881Z,7.31
2019-04-06T06:25:03.900Z,7.31
2019-04-06T06:27:03.933Z,7.38
2019-04-06T06:29:03.866Z,7.38
2019-04-06T06:31:03.888Z,7.38
2019-04-06T06:32:20.979Z,7.44
2019-04-06T06:33:04.835Z,7.5
2019-04-06T06:35:03.875Z,7.56
2019-04-06T06:37:03.887Z,7.69
2019-04-06T06:39:03.898Z,7.63
2019-04-06T06:41:03.908Z,7.63
2019-04-06T06:43:03.911Z,7.69
2019-04-06T06:45:03.875Z,7.81
2019-04-06T06:47:04.931Z,7.88
2019-04-06T06:47:20.865Z,7.81
2019-04-06T06:49:03.881Z,7.81
2019-04-06T06:51:03.932Z,8
2019-04-06T06:53:03.872Z,8.06
2019-04-06T06:55:03.879Z,8
2019-04-06T06:57:03.965Z,8.06
2019-04-06T06:59:03.835Z,8.06
2019-04-06T07:01:04.115Z,8.19
2019-04-06T07:02:20.942Z,8.19
2019-04-06T07:03:03.931Z,8.25
2019-04-06T07:05:03.918Z,8.25
2019-04-06T07:07:03.955Z,8.38
2019-04-06T07:09:03.924Z,8.5
2019-04-06T07:11:03.870Z,8.44
2019-04-06T07:13:03.932Z,8.56
2019-04-06T07:15:03.934Z,8.56
2019-04-06T07:17:03.877Z,8.75
2019-04-06T07:17:20.868Z,8.75
2019-04-06T07:19:04.087Z,8.94
2019-04-06T07:21:03.922Z,9.06
2019-04-06T07:23:03.870Z,9.06
2019-04-06T07:25:03.872Z,9.25
2019-04-06T07:27:03.938Z,9.31
2019-04-06T07:29:03.872Z,9.38
2019-04-06T07:31:03.926Z,9.44
2019-04-06T07:32:20.821Z,9.38
2019-04-06T07:33:03.877Z,9.25
2019-04-06T07:35:03.930Z,9.19
2019-04-06T07:37:04.800Z,9.44
2019-04-06T07:39:03.872Z,9.63
2019-04-06T07:41:04.035Z,9.75
2019-04-06T07:43:03.832Z,10
2019-04-06T07:45:03.873Z,9.88
2019-04-06T07:47:03.977Z,9.94
2019-04-06T07:47:20.833Z,9.88
2019-04-06T07:49:08.953Z,10
2019-04-06T07:51:03.904Z,10
2019-04-06T07:53:04.041Z,9.94
2019-04-06T07:55:03.909Z,9.94
2019-04-06T07:57:04.832Z,10
2019-04-06T07:59:03.925Z,10.06
2019-04-06T08:01:03.864Z,10.06
2019-04-06T08:02:20.904Z,9.94
2019-04-06T08:03:04.790Z,9.94
2019-04-06T08:05:03.930Z,9.94
2019-04-06T08:07:03.879Z,9.88
2019-04-06T08:09:03.838Z,9.94
2019-04-06T08:11:03.951Z,10.06
2019-04-06T08:13:04.816Z,10.13
2019-04-06T08:15:03.831Z,10.19
2019-04-06T08:17:04.271Z,10
2019-04-06T08:17:20.732Z,10
2019-04-06T08:19:04.049Z,10.19
2019-04-06T08:21:03.967Z,10.31
2019-04-06T08:23:03.834Z,10.38
2019-04-06T08:25:03.921Z,10.31
2019-04-06T08:27:03.863Z,10.38
2019-04-06T08:29:04.018Z,10.25
2019-04-06T08:31:03.870Z,10.31
2019-04-06T08:32:20.934Z,10.31
2019-04-06T08:33:04.105Z,10.31
2019-04-06T08:35:03.874Z,10.31
2019-04-06T08:37:03.866Z,10.38
2019-04-06T08:39:03.879Z,10.44
2019-04-06T08:41:04.025Z,10.56
2019-04-06T08:43:04.009Z,10.69
2019-04-06T08:45:04.055Z,10.88
2019-04-06T08:47:03.839Z,11
2019-04-06T08:47:21.840Z,11.06
2019-04-06T08:49:03.904Z,11
2019-04-06T08:51:03.992Z,11.19
2019-04-06T08:53:03.924Z,11.31
2019-04-06T08:55:03.960Z,11.56
2019-04-06T08:57:03.997Z,11.81
2019-04-06T08:59:11.158Z,11.88
2019-04-06T09:01:03.895Z,11.88
2019-04-06T09:02:20.827Z,11.88
2019-04-06T09:03:03.902Z,11.88
2019-04-06T09:05:03.926Z,12.06
2019-04-06T09:07:03.871Z,12.13
2019-04-06T09:09:03.831Z,12.38
2019-04-06T09:11:03.981Z,12.5
2019-04-06T09:13:03.970Z,12.38
2019-04-06T09:15:05.739Z,12.38
2019-04-06T09:17:03.923Z,12.25
2019-04-06T09:17:21.227Z,12.19
2019-04-06T09:19:03.886Z,12
2019-04-06T09:21:03.900Z,12
2019-04-06T09:23:03.885Z,12
2019-04-06T09:25:03.847Z,11.81
2019-04-06T09:27:03.939Z,11.94
2019-04-06T09:29:04.169Z,11.94
2019-04-06T09:31:04.169Z,12.06
2019-04-06T09:32:21.047Z,12.06
2019-04-06T09:33:03.898Z,12.06
2019-04-06T09:35:03.965Z,12.19
2019-04-06T09:37:04.022Z,12.25
2019-04-06T09:39:03.904Z,12.19
2019-04-06T09:41:03.945Z,12.25
2019-04-06T09:43:03.884Z,12.13
2019-04-06T09:45:04.000Z,12.38
2019-04-06T09:47:04.281Z,12.56
2019-04-06T09:47:20.737Z,12.63
2019-04-06T09:49:04.027Z,12.69
2019-04-06T09:51:03.931Z,12.5
2019-04-06T09:53:03.880Z,12.38
2019-04-06T09:55:04.116Z,12.13
2019-04-06T09:57:03.882Z,12.13
2019-04-06T09:59:03.947Z,12.19
2019-04-06T10:01:03.895Z,12.31
2019-04-06T10:02:20.917Z,12.44
2019-04-06T10:03:03.944Z,12.56
2019-04-06T10:05:03.935Z,12.69
2019-04-06T10:07:04.787Z,12.56
2019-04-06T10:09:03.999Z,12.56
2019-04-06T10:11:03.926Z,12.56
2019-04-06T10:13:04.147Z,12.63
2019-04-06T10:15:03.950Z,12.88
2019-04-06T10:17:03.898Z,12.88
2019-04-06T10:17:21.021Z,12.88
2019-04-06T10:19:03.901Z,12.81
2019-04-06T10:21:04.137Z,12.81
2019-04-06T10:23:03.892Z,12.75
2019-04-06T10:25:04.227Z,12.81
2019-04-06T10:27:04.970Z,13
2019-04-06T10:29:04.127Z,13.19
2019-04-06T10:31:03.886Z,13.25
2019-04-06T10:32:21.010Z,13.25
2019-04-06T10:33:03.905Z,13.25
2019-04-06T10:35:04.109Z,13.19
2019-04-06T10:37:04.182Z,13.38
2019-04-06T10:39:03.891Z,13.19
2019-04-06T10:41:04.906Z,13.13
2019-04-06T10:43:04.841Z,13.13
2019-04-06T10:45:03.901Z,13.19
2019-04-06T10:47:03.927Z,13.25
2019-04-06T10:47:20.806Z,13.25
2019-04-06T10:49:03.895Z,13.19
2019-04-06T10:51:03.906Z,13.13
2019-04-06T10:53:03.891Z,13
2019-04-06T10:55:03.958Z,13
2019-04-06T10:57:13.885Z,13.06
2019-04-06T10:59:04.782Z,13.25
2019-04-06T11:01:10.026Z,13.19
2019-04-06T11:02:21.793Z,13.13
2019-04-06T11:03:03.879Z,13.06
2019-04-06T11:05:04.179Z,13
2019-04-06T11:07:04.483Z,13.06
2019-04-06T11:09:03.860Z,13.06
2019-04-06T11:11:04.103Z,13.13
2019-04-06T11:13:03.892Z,13.25
2019-04-06T11:15:03.878Z,13.19
2019-04-06T11:17:03.877Z,13.25
2019-04-06T11:17:20.844Z,13.25
2019-04-06T11:19:13.959Z,13.5
2019-04-06T11:21:03.894Z,13.81
2019-04-06T11:23:03.924Z,13.69
2019-04-06T11:25:03.877Z,13.69
2019-04-06T11:27:03.959Z,13.81
2019-04-06T11:29:04.146Z,13.81
2019-04-06T11:31:04.173Z,13.75
2019-04-06T11:32:21.101Z,13.69
2019-04-06T11:33:03.907Z,13.69
2019-04-06T11:35:03.891Z,13.69
2019-04-06T11:37:04.078Z,13.75
2019-04-06T11:39:03.885Z,13.81
2019-04-06T11:41:04.145Z,13.81
2019-04-06T11:43:03.997Z,13.94
2019-04-06T11:45:04.026Z,13.88
2019-04-06T11:47:03.865Z,14
2019-04-06T11:47:20.803Z,14
2019-04-06T11:49:04.361Z,13.94
2019-04-06T11:51:05.041Z,13.88
2019-04-06T11:53:03.889Z,13.94
2019-04-06T11:55:03.846Z,13.94
2019-04-06T11:57:03.942Z,13.94
2019-04-06T11:59:03.934Z,13.81
2019-04-06T12:01:04.921Z,13.88
2019-04-06T12:02:20.856Z,14.06
2019-04-06T12:03:03.832Z,14.13
2019-04-06T12:05:04.779Z,14.06
2019-04-06T12:07:03.844Z,14
2019-04-06T12:09:03.930Z,14
2019-04-06T12:11:03.983Z,14.06
2019-04-06T12:13:03.884Z,14.19
2019-04-06T12:15:04.096Z,14.13
2019-04-06T12:17:04.125Z,14.25
2019-04-06T12:17:21.004Z,14.31
2019-04-06T12:19:03.920Z,14.25
2019-04-06T12:21:03.889Z,14.31
2019-04-06T12:23:03.965Z,14.25
2019-04-06T12:25:03.919Z,14.13
2019-04-06T12:27:04.049Z,14.13
2019-04-06T12:29:04.119Z,14.13
2019-04-06T12:31:04.130Z,14.13
2019-04-06T12:32:20.875Z,14.06
2019-04-06T12:33:03.909Z,14.06
2019-04-06T12:35:04.166Z,14
2019-04-06T12:37:03.881Z,14.25
2019-04-06T12:39:03.888Z,14.31
2019-04-06T12:41:03.920Z,14.25
2019-04-06T12:43:04.960Z,14.31
2019-04-06T12:45:03.888Z,14.38
2019-04-06T12:47:05.758Z,14.38
2019-04-06T12:47:21.192Z,14.44
2019-04-06T12:49:04.266Z,14.44
2019-04-06T12:51:08.886Z,14.5
2019-04-06T12:53:04.765Z,14.31
2019-04-06T12:55:03.897Z,14.44
2019-04-06T12:57:04.129Z,14.56
2019-04-06T12:59:04.135Z,14.63
2019-04-06T13:01:04.866Z,14.69
2019-04-06T13:02:21.256Z,14.63
2019-04-06T13:03:09.112Z,14.56
2019-04-06T13:05:03.870Z,14.56
2019-04-06T13:07:03.965Z,14.69
2019-04-06T13:09:04.018Z,14.63
2019-04-06T13:11:03.885Z,14.75
2019-04-06T13:13:03.878Z,14.69
2019-04-06T13:15:03.962Z,14.69
2019-04-06T13:17:04.150Z,14.69
2019-04-06T13:17:20.928Z,14.69
2019-04-06T13:19:03.873Z,14.75
2019-04-06T13:21:03.936Z,14.81
2019-04-06T13:23:03.876Z,14.88
2019-04-06T13:25:03.888Z,14.88
2019-04-06T13:27:03.922Z,14.94
2019-04-06T13:29:03.930Z,14.88
2019-04-06T13:31:04.609Z,15
2019-04-06T13:32:20.822Z,15.06
2019-04-06T13:33:03.895Z,15.06
2019-04-06T13:35:03.882Z,15.06
2019-04-06T13:37:03.906Z,15.19
2019-04-06T13:39:03.876Z,15.38
2019-04-06T13:41:03.900Z,15.25
2019-04-06T13:43:13.895Z,15.38
2019-04-06T13:45:13.950Z,15.44
2019-04-06T13:47:03.861Z,15.5
2019-04-06T13:47:21.658Z,15.5
2019-04-06T13:51:04.847Z,15.69
2019-04-06T13:53:03.975Z,15.81
2019-04-06T13:55:04.196Z,15.81
2019-04-06T13:57:03.853Z,15.88
2019-04-06T13:59:05.491Z,16
2019-04-06T14:01:13.245Z,16.13
2019-04-06T14:02:20.945Z,16.06
2019-04-06T14:03:03.913Z,16.13
2019-04-06T14:05:04.043Z,16.13
2019-04-06T14:07:03.882Z,16.13
2019-04-06T14:09:04.119Z,16.13
2019-04-06T14:11:04.074Z,16.13
2019-04-06T14:13:04.010Z,16.19
2019-04-06T14:15:03.863Z,16.31
2019-04-06T14:17:03.892Z,16.56
2019-04-06T14:17:20.876Z,16.63
2019-04-06T14:19:04.783Z,16.88
2019-04-06T14:21:03.871Z,17.31
2019-04-06T14:23:03.876Z,17.69
2019-04-06T14:25:03.925Z,17.5
2019-04-06T14:27:04.015Z,17.5
2019-04-06T14:29:03.912Z,17.75
2019-04-06T14:31:04.354Z,17.94
2019-04-06T14:32:20.957Z,18
2019-04-06T14:33:04.129Z,18
2019-04-06T14:35:03.905Z,18.19
2019-04-06T14:37:03.974Z,18.38
2019-04-06T14:39:05.724Z,18.63
2019-04-06T14:41:03.881Z,18.63
2019-04-06T14:43:03.935Z,18.19
2019-04-06T14:45:04.884Z,18.31
2019-04-06T14:47:03.892Z,18.63
2019-04-06T14:47:20.930Z,18.56
2019-04-06T14:49:10.930Z,18.81
2019-04-06T14:51:04.024Z,18.44
2019-04-06T14:53:03.876Z,18.81
2019-04-06T14:55:03.967Z,18.81
2019-04-06T14:57:03.942Z,18.81
2019-04-06T14:59:03.900Z,19.13
2019-04-06T15:01:04.029Z,19
2019-04-06T15:02:20.878Z,19
2019-04-06T15:03:03.876Z,19.06
2019-04-06T15:05:03.871Z,19
2019-04-06T15:07:09.978Z,19.06
2019-04-06T15:09:04.270Z,19.38
2019-04-06T15:11:03.873Z,19.13
2019-04-06T15:13:03.894Z,19.19
2019-04-06T15:15:05.082Z,19.31
2019-04-06T15:17:04.052Z,19.06
2019-04-06T15:17:20.887Z,19
2019-04-06T15:19:03.825Z,19.19
2019-04-06T15:21:04.101Z,19.19
2019-04-06T15:23:03.833Z,18.81
2019-04-06T15:25:03.914Z,18.75
2019-04-06T15:27:03.880Z,18.63
2019-04-06T15:29:04.054Z,18.56
2019-04-06T15:31:03.867Z,18.56
2019-04-06T15:32:20.950Z,18.44
2019-04-06T15:33:04.220Z,18.63
2019-04-06T15:35:04.081Z,18.81
2019-04-06T15:37:06.411Z,18.5
2019-04-06T15:39:04.338Z,18.56
2019-04-06T15:41:03.875Z,18.75
2019-04-06T15:43:04.093Z,18.94
2019-04-06T15:45:03.928Z,18.69
2019-04-06T15:47:03.865Z,18.44
2019-04-06T15:47:20.777Z,18.44
2019-04-06T15:49:03.909Z,18.38
2019-04-06T15:51:04.018Z,18.44
2019-04-06T15:53:03.892Z,18.5
2019-04-06T15:55:04.150Z,18.5
2019-04-06T15:57:03.968Z,18.44
2019-04-06T15:59:03.973Z,18.38
2019-04-06T16:01:03.927Z,18.5
2019-04-06T16:02:21.295Z,18.5
2019-04-06T16:03:03.908Z,18.56
2019-04-06T16:05:04.025Z,18.5
2019-04-06T16:07:03.932Z,18.31
2019-04-06T16:09:03.858Z,18.19
2019-04-06T16:11:04.298Z,18.31
2019-04-06T16:13:03.909Z,18.25
2019-04-06T16:15:04.262Z,18.25
2019-04-06T16:17:03.984Z,18.31
2019-04-06T16:17:20.842Z,18.31
2019-04-06T16:19:03.977Z,18.31
2019-04-06T16:21:03.932Z,18.31
2019-04-06T16:23:03.894Z,18.06
2019-04-06T16:25:03.887Z,17.88
2019-04-06T16:27:04.869Z,17.63
2019-04-06T16:29:03.922Z,17.38
2019-04-06T16:31:04.155Z,17.25
2019-04-06T16:32:31.314Z,17.06
2019-04-06T16:33:03.864Z,16.94
2019-04-06T16:35:04.297Z,16.88
2019-04-06T16:37:03.826Z,16.81
2019-04-06T16:39:03.921Z,16.75
2019-04-06T16:41:04.016Z,16.69
2019-04-06T16:43:04.007Z,16.63
2019-04-06T16:45:03.940Z,16.44
2019-04-06T16:47:03.877Z,16.38
2019-04-06T16:47:20.886Z,16.31
2019-04-06T16:49:03.911Z,16.25
2019-04-06T16:51:04.001Z,16.19
2019-04-06T16:53:04.029Z,16.13
2019-04-06T16:55:03.894Z,16
2019-04-06T16:57:03.950Z,15.94
2019-04-06T16:59:03.826Z,15.88
2019-04-06T17:01:04.218Z,15.69
2019-04-06T17:02:24.225Z,15.75
2019-04-06T17:03:06.363Z,15.69
2019-04-06T17:05:03.862Z,15.56
2019-04-06T17:07:03.933Z,15.56
2019-04-06T17:09:03.875Z,15.56
2019-04-06T17:11:04.812Z,15.5
2019-04-06T17:13:03.881Z,15.38
2019-04-06T17:15:05.119Z,15.38
2019-04-06T17:17:03.874Z,15.25
2019-04-06T17:17:21.237Z,15.25
2019-04-06T17:19:03.870Z,15.19
2019-04-06T17:21:03.873Z,15
2019-04-06T17:23:03.945Z,15
2019-04-06T17:25:03.871Z,14.88
2019-04-06T17:27:03.924Z,14.88
2019-04-06T17:29:03.930Z,14.81
2019-04-06T17:31:03.980Z,14.75
2019-04-06T17:32:20.948Z,14.75
2019-04-06T17:33:03.877Z,14.75
2019-04-06T17:35:04.788Z,14.69
2019-04-06T17:37:03.970Z,14.69
2019-04-06T17:39:03.932Z,14.56
2019-04-06T17:41:03.961Z,14.56
2019-04-06T17:43:03.871Z,14.44
2019-04-06T17:45:03.921Z,14.44
2019-04-06T17:47:03.951Z,14.31
2019-04-06T17:47:20.928Z,14.38
2019-04-06T17:49:04.324Z,14.31
2019-04-06T17:51:04.666Z,14.25
2019-04-06T17:53:03.829Z,14.19
2019-04-06T17:55:03.874Z,14.13
2019-04-06T17:57:03.943Z,14.06
2019-04-06T17:59:04.154Z,14
2019-04-06T18:01:03.886Z,14
2019-04-06T18:02:21.002Z,13.94
2019-04-06T18:03:03.906Z,13.94
2019-04-06T18:05:04.495Z,13.88
2019-04-06T18:07:03.905Z,13.81
2019-04-06T18:09:06.207Z,13.69
2019-04-06T18:11:05.184Z,13.69
2019-04-06T18:13:04.359Z,13.69
2019-04-06T18:15:03.843Z,13.56
2019-04-06T18:17:04.166Z,13.56
2019-04-06T18:17:20.934Z,13.5
2019-04-06T18:19:03.856Z,13.5
2019-04-06T18:21:03.891Z,13.44
2019-04-06T18:23:04.974Z,13.31
2019-04-06T18:25:04.144Z,13.31
2019-04-06T18:27:03.905Z,13.25
2019-04-06T18:29:03.960Z,13.19
2019-04-06T18:31:04.025Z,13.19
2019-04-06T18:32:20.952Z,13.13
2019-04-06T18:33:04.006Z,13.06
2019-04-06T18:35:04.043Z,13.06
2019-04-06T18:37:03.924Z,13.06
2019-04-06T18:39:03.846Z,13.06
2019-04-06T18:41:03.913Z,13
2019-04-06T18:43:05.176Z,12.94
2019-04-06T18:45:03.884Z,12.94
2019-04-06T18:47:03.896Z,12.94
2019-04-06T18:47:20.966Z,12.94
2019-04-06T18:49:03.946Z,12.81
2019-04-06T18:51:04.791Z,12.81
2019-04-06T18:53:03.833Z,12.81
2019-04-06T18:55:03.876Z,12.69
2019-04-06T18:57:03.930Z,12.63
2019-04-06T18:59:03.967Z,12.63
2019-04-06T19:01:04.246Z,12.63
2019-04-06T19:02:21.199Z,12.63
2019-04-06T19:03:11.571Z,12.56
2019-04-06T19:05:04.772Z,12.56
2019-04-06T19:07:03.914Z,12.5
2019-04-06T19:09:03.853Z,12.5
2019-04-06T19:11:03.987Z,12.44
2019-04-06T19:13:04.379Z,12.44
2019-04-06T19:15:03.932Z,12.38
2019-04-06T19:17:03.884Z,12.38
2019-04-06T19:17:21.235Z,12.38
2019-04-06T19:19:03.922Z,12.38
2019-04-06T19:21:03.967Z,12.38
2019-04-06T19:23:04.884Z,12.38
2019-04-06T19:25:03.839Z,12.31
2019-04-06T19:27:04.364Z,12.31
2019-04-06T19:29:03.886Z,12.25
2019-04-06T19:31:03.982Z,12.25
2019-04-06T19:32:21.305Z,12.25
2019-04-06T19:33:04.471Z,12.25
2019-04-06T19:35:04.080Z,12.25
2019-04-06T19:37:04.765Z,12.19
2019-04-06T19:39:04.247Z,12.19
2019-04-06T19:41:03.880Z,12.19
2019-04-06T19:43:03.838Z,12.13
2019-04-06T19:45:03.931Z,12.13
2019-04-06T19:47:04.199Z,12.06
2019-04-06T19:47:21.235Z,12.06
2019-04-06T19:49:03.912Z,12
2019-04-06T19:51:03.873Z,12
2019-04-06T19:53:03.921Z,12
2019-04-06T19:55:03.867Z,12
2019-04-06T19:57:04.188Z,12
2019-04-06T19:59:04.396Z,12
2019-04-06T20:01:04.272Z,12
2019-04-06T20:02:20.980Z,11.94
2019-04-06T20:03:04.776Z,12
2019-04-06T20:05:03.978Z,11.94
2019-04-06T20:07:03.886Z,11.94
2019-04-06T20:09:04.190Z,11.94
2019-04-06T20:11:05.173Z,11.88
2019-04-06T20:13:03.908Z,11.81
2019-04-06T20:15:03.988Z,11.81
2019-04-06T20:17:04.213Z,11.75
2019-04-06T20:17:20.908Z,11.81
2019-04-06T20:19:04.316Z,11.81
2019-04-06T20:21:04.985Z,11.88
2019-04-06T20:23:04.182Z,11.81
2019-04-06T20:25:03.859Z,11.75
2019-04-06T20:27:03.943Z,11.69
2019-04-06T20:29:03.917Z,11.69
2019-04-06T20:31:03.818Z,11.75
2019-04-06T20:32:21.321Z,11.81
2019-04-06T20:33:04.335Z,11.81
2019-04-06T20:35:04.226Z,11.88
2019-04-06T20:37:03.916Z,11.88
2019-04-06T20:39:04.065Z,11.94
2019-04-06T20:41:04.270Z,11.94
2019-04-06T20:43:04.026Z,12
2019-04-06T20:45:03.852Z,12.13
2019-04-06T20:47:04.221Z,12.06
2019-04-06T20:47:21.522Z,12.13
2019-04-06T20:49:04.403Z,12.13
2019-04-06T20:51:03.987Z,12.06
2019-04-06T20:53:03.896Z,12
2019-04-06T20:55:03.949Z,11.94
2019-04-06T20:57:03.989Z,11.94
2019-04-06T20:59:03.989Z,11.94
2019-04-06T21:01:03.975Z,12
2019-04-06T21:02:20.781Z,12.06
2019-04-06T21:03:05.039Z,12.06
2019-04-06T21:05:03.887Z,12
2019-04-06T21:07:04.382Z,11.94
2019-04-06T21:09:04.333Z,12
2019-04-06T21:11:04.390Z,11.94
2019-04-06T21:13:04.340Z,11.88
2019-04-06T21:15:15.836Z,11.88
2019-04-06T21:17:04.204Z,11.88
2019-04-06T21:17:20.813Z,11.81
2019-04-06T21:19:03.968Z,11.81
2019-04-06T21:21:03.951Z,11.75
2019-04-06T21:23:03.850Z,11.69
2019-04-06T21:25:03.977Z,11.69
2019-04-06T21:27:04.885Z,11.69
2019-04-06T21:29:04.009Z,11.75
2019-04-06T21:31:04.279Z,11.81
2019-04-06T21:32:20.823Z,11.88
2019-04-06T21:33:04.228Z,11.81
2019-04-06T21:35:08.849Z,11.81
2019-04-06T21:37:04.205Z,11.81
2019-04-06T21:39:03.908Z,11.94
2019-04-06T21:41:03.940Z,11.88
2019-04-06T21:43:04.837Z,11.81
2019-04-06T21:45:05.029Z,11.81
2019-04-06T21:47:06.546Z,11.94
2019-04-06T21:47:20.903Z,11.94
2019-04-06T21:49:04.524Z,11.94
2019-04-06T21:51:03.880Z,11.88
2019-04-06T21:53:03.904Z,11.88
2019-04-06T21:55:03.990Z,11.88
2019-04-06T21:57:04.007Z,11.94
2019-04-06T21:59:03.841Z,11.88
2019-04-06T22:01:04.022Z,11.88
2019-04-06T22:02:20.795Z,11.81
2019-04-06T22:03:04.850Z,11.81
2019-04-06T22:05:04.510Z,11.81
2019-04-06T22:07:04.020Z,11.88
2019-04-06T22:09:03.884Z,11.88
2019-04-06T22:11:04.457Z,11.81
2019-04-06T22:13:04.007Z,11.81
2019-04-06T22:15:05.882Z,11.75
2019-04-06T22:17:05.252Z,11.75
2019-04-06T22:17:21.657Z,11.75
2019-04-06T22:19:04.491Z,11.69
2019-04-06T22:21:03.955Z,11.63
2019-04-06T22:23:03.924Z,11.5
2019-04-06T22:25:04.273Z,11.5
2019-04-06T22:27:03.933Z,11.44
2019-04-06T22:29:04.052Z,11.44
2019-04-06T22:31:04.272Z,11.38
2019-04-06T22:32:21.023Z,11.38
2019-04-06T22:33:04.223Z,11.31
2019-04-06T22:35:04.349Z,11.31
2019-04-06T22:37:03.955Z,11.25
2019-04-06T22:39:04.177Z,11.19
2019-04-06T22:41:03.947Z,11.13
2019-04-06T22:43:04.015Z,11.13
2019-04-06T22:45:03.937Z,11.06
2019-04-06T22:47:03.967Z,11
2019-04-06T22:47:20.974Z,11
2019-04-06T22:49:04.099Z,10.94
2019-04-06T22:51:04.519Z,10.94
2019-04-06T22:53:04.019Z,10.88
2019-04-06T22:55:04.058Z,10.88
2019-04-06T22:57:04.350Z,10.81
2019-04-06T22:59:03.963Z,10.81
2019-04-06T23:01:03.894Z,10.81
2019-04-06T23:02:21.317Z,10.75
2019-04-06T23:03:05.757Z,10.75
2019-04-06T23:05:05.217Z,10.69
2019-04-06T23:07:04.168Z,10.69
2019-04-06T23:09:04.418Z,10.69
2019-04-06T23:11:03.897Z,10.75
2019-04-06T23:13:04.772Z,10.69